Pombinho — CUKX3 — position and weather

sailwx.info

Track history (hours):
 
Tides and Currents Weather Stations Pressure Air Temp Water Temp Dewpoint Dewpoint Depression Visibility Wind Speed Wind Dir Waves Ship Positions

Pombinho

Last reported at 2017-Oct-18 11:55 UTC. Time now 2017-Oct-18 20:25 UTC.
Position N 38°26' W 009°07'.

Length 23 m.

Type: Fishing. MMSI: 263500177.

Date/timePositionNaut miles runAvg speedWind from/ knotsBaromVisibWave heightAir tempDewpointWater temp
2017-Oct-18 11:55N 38°26' W 009°07'0 0.0
2017-Oct-18 10:58N 38°26' W 009°07'5 6.3
2017-Oct-18 10:14N 38°24' W 009°12'2 7.6
2017-Oct-18 09:59N 38°25' W 009°14'5 8.8
2017-Oct-18 09:28N 38°30' W 009°14'4 8.3
2017-Oct-18 09:00N 38°34' W 009°15'0 0.1
2017-Oct-18 08:30N 38°33' W 009°15'0 0.4
2017-Oct-18 07:59N 38°33' W 009°15'0 0.4
2017-Oct-18 07:29N 38°33' W 009°15'0 0.4
2017-Oct-18 07:00N 38°33' W 009°15'0 0.3
2017-Oct-18 06:30N 38°33' W 009°15'0 0.3
2017-Oct-18 06:00N 38°33' W 009°15'0 0.3
2017-Oct-18 05:30N 38°33' W 009°14'1 1.2
2017-Oct-18 05:00N 38°32' W 009°14'2 4.7
2017-Oct-18 04:30N 38°34' W 009°15'2 3.5
2017-Oct-18 03:59N 38°35' W 009°17'0 0.0
2017-Oct-18 02:05N 38°35' W 009°17'0 0.1
2017-Oct-18 02:00N 38°35' W 009°17'0 0.0
2017-Oct-18 01:30N 38°35' W 009°17'0 0.0
2017-Oct-18 01:00N 38°35' W 009°17'0 0.0
2017-Oct-18 00:30N 38°35' W 009°17'0 0.0
2017-Oct-18 00:00N 38°35' W 009°17'0 0.0
2017-Oct-17 23:28N 38°35' W 009°17'0 0.7
2017-Oct-17 22:59N 38°35' W 009°17'3 5.4
2017-Oct-17 22:29N 38°33' W 009°15'1 1.8
2017-Oct-17 22:00N 38°32' W 009°14'0 0.7
2017-Oct-17 21:30N 38°32' W 009°14'0 0.8
2017-Oct-17 20:59N 38°32' W 009°14'0 0.4
2017-Oct-17 20:30N 38°32' W 009°14'3 5.2
2017-Oct-17 20:00N 38°29' W 009°14'1 1.2
2017-Oct-17 19:30N 38°30' W 009°13'0 0.7
2017-Oct-17 18:59N 38°29' W 009°14'0 0.4
2017-Oct-17 18:30N 38°29' W 009°14'0 0.3
2017-Oct-17 18:00N 38°29' W 009°14'2 4.8
2017-Oct-17 17:30N 38°27' W 009°14'3 6.1
2017-Oct-17 17:00N 38°25' W 009°11'3 6.7
2017-Oct-17 16:30N 38°26' W 009°07'0 0.0
2017-Oct-17 10:10N 38°26' W 009°07'0 1.0
2017-Oct-17 10:00N 38°26' W 009°07'0 0.0
2017-Oct-17 09:24N 38°26' W 009°07'0 0.0
2017-Oct-17 09:00N 38°26' W 009°07'0 0.0
2017-Oct-17 08:30N 38°26' W 009°07'0 0.0
2017-Oct-17 08:01N 38°26' W 009°07'0 0.0
2017-Oct-17 07:30N 38°26' W 009°07'0 0.0
2017-Oct-17 07:00N 38°26' W 009°07'0 0.0
2017-Oct-17 06:30N 38°26' W 009°07'3 5.5
2017-Oct-17 06:00N 38°25' W 009°10'4 7.2
2017-Oct-17 05:30N 38°25' W 009°14'4 8.5
2017-Oct-17 05:00N 38°29' W 009°14'4 7.9
2017-Oct-17 04:29N 38°33' W 009°17'4 8.5
2017-Oct-17 04:00N 38°36' W 009°20'4 8.2
2017-Oct-17 03:30N 38°38' W 009°24'3 5.2
2017-Oct-17 03:00N 38°40' W 009°27'0 0.2
2017-Oct-17 02:30N 38°40' W 009°27'0 0.1
2017-Oct-17 02:00N 38°40' W 009°27'0 0.1
2017-Oct-17 01:31N 38°40' W 009°27'0 0.1
2017-Oct-17 01:01N 38°40' W 009°27'0 0.2
2017-Oct-17 00:31N 38°40' W 009°27'0 0.2
2017-Oct-17 00:01N 38°40' W 009°26'3 5.6
2017-Oct-16 23:30N 38°38' W 009°24'4 8.2
2017-Oct-16 23:00N 38°35' W 009°21'3 6.3
2017-Oct-16 22:30N 38°35' W 009°17'3 6.6
2017-Oct-16 22:00N 38°32' W 009°14'3 5.3
2017-Oct-16 21:30N 38°29' W 009°14'4 7.0
2017-Oct-16 21:00N 38°26' W 009°14'5 6.8
2017-Oct-16 20:18N 38°25' W 009°08'1 0.3
2017-Oct-16 14:42N 38°26' W 009°07'0 0.3
2017-Oct-16 14:00N 38°26' W 009°07'0 0.0
2017-Oct-16 13:30N 38°26' W 009°07'0 0.0
2017-Oct-16 13:00N 38°26' W 009°07'0 0.0
2017-Oct-16 12:30N 38°26' W 009°07'0 0.0
2017-Oct-16 12:00N 38°26' W 009°07'0 0.0
2017-Oct-16 11:30N 38°26' W 009°07'0 0.0
2017-Oct-16 11:00N 38°26' W 009°07'0 0.4
2017-Oct-16 10:30N 38°26' W 009°06'4 8.9
2017-Oct-16 10:00N 38°24' W 009°02'4 9.0
2017-Oct-16 09:30N 38°21' W 008°57'5 8.9
2017-Oct-16 08:59N 38°19' W 008°52'4 6.4
2017-Oct-16 08:25N 38°17' W 008°49'0 0.2
2017-Oct-16 07:57N 38°16' W 008°49'3 6.0
2017-Oct-16 07:30N 38°14' W 008°49'0 0.4
2017-Oct-16 07:00N 38°14' W 008°49'0 0.3
2017-Oct-16 06:30N 38°13' W 008°49'0 0.3
2017-Oct-16 06:00N 38°13' W 008°48'0 0.3
2017-Oct-16 05:30N 38°13' W 008°48'3 5.2
2017-Oct-16 05:00N 38°16' W 008°49'3 5.0
2017-Oct-16 04:30N 38°16' W 008°52'4 7.6
2017-Oct-16 04:00N 38°18' W 008°56'4 7.5
2017-Oct-16 03:30N 38°19' W 009°01'4 7.8
2017-Oct-16 03:00N 38°21' W 009°05'4 7.7
2017-Oct-16 02:29N 38°23' W 009°10'4 7.6
2017-Oct-16 02:00N 38°25' W 009°14'4 7.2
2017-Oct-16 01:30N 38°28' W 009°14'2 4.6
2017-Oct-16 01:00N 38°30' W 009°14'2 4.1
2017-Oct-16 00:30N 38°32' W 009°15'4 7.8
2017-Oct-16 00:00N 38°36' W 009°17'2 4.3
2017-Oct-15 23:30N 38°34' W 009°18'4 7.4
2017-Oct-15 23:00N 38°32' W 009°15'4 7.9
2017-Oct-15 22:30N 38°28' W 009°14'4 7.9
2017-Oct-15 22:00N 38°24' W 009°13'4 8.1
2017-Oct-15 21:30N 38°25' W 009°08'2 3.8
2017-Oct-15 21:00N 38°26' W 009°07'  
2017-Oct-13 11:33N 38°26' W 009°07'0 0.0
2017-Oct-13 11:30N 38°26' W 009°07'0 0.0
2017-Oct-13 11:00N 38°26' W 009°07'0 0.0
2017-Oct-13 10:27N 38°26' W 009°07'0 0.0
2017-Oct-13 08:07N 38°26' W 009°07'0 0.0
2017-Oct-13 07:59N 38°26' W 009°07'0 0.0
2017-Oct-13 07:29N 38°26' W 009°07'0 0.0
2017-Oct-13 07:00N 38°26' W 009°07'0 0.0
2017-Oct-13 06:30N 38°26' W 009°07'4 5.4
2017-Oct-13 05:47N 38°25' W 009°11'5 1.3
2017-Oct-13 01:48N 38°29' W 009°14'0 0.2
2017-Oct-13 01:28N 38°29' W 009°14'0 0.1
2017-Oct-13 00:21N 38°29' W 009°14'8 3.6
2017-Oct-12 22:01N 38°36' W 009°21'0 0.8
2017-Oct-12 22:00N 38°36' W 009°21'0 0.4
2017-Oct-12 21:30N 38°36' W 009°21'0 0.4
2017-Oct-12 20:57N 38°36' W 009°21'0 0.4
2017-Oct-12 20:30N 38°36' W 009°22'0 0.2
2017-Oct-12 19:59N 38°36' W 009°22'0 0.6
2017-Oct-12 19:30N 38°36' W 009°22'4 6.8
2017-Oct-12 18:59N 38°34' W 009°19'4 8.1
2017-Oct-12 18:30N 38°30' W 009°17'4 8.4
2017-Oct-12 18:00N 38°26' W 009°14'5 7.1
2017-Oct-12 17:21N 38°25' W 009°09'2 0.2
2017-Oct-12 10:25N 38°26' W 009°07'0 0.3
2017-Oct-12 09:59N 38°26' W 009°07'0 0.0
2017-Oct-12 08:43N 38°26' W 009°07'0 0.0
2017-Oct-12 08:26N 38°26' W 009°07'1 1.6
2017-Oct-12 07:56N 38°26' W 009°07'3 7.9
2017-Oct-12 07:30N 38°25' W 009°12'4 6.6
2017-Oct-12 06:58N 38°28' W 009°14'2 3.2
2017-Oct-12 06:30N 38°29' W 009°14'0 0.1
2017-Oct-12 06:00N 38°29' W 009°14'0 0.2
2017-Oct-12 05:30N 38°29' W 009°14'0 0.2
2017-Oct-12 04:59N 38°29' W 009°14'0 0.2
2017-Oct-12 04:30N 38°29' W 009°14'4 7.6
2017-Oct-12 03:58N 38°25' W 009°14'4 7.2
2017-Oct-12 03:28N 38°25' W 009°09'2 4.3
2017-Oct-12 03:00N 38°26' W 009°07'0 0.0
2017-Oct-12 02:30N 38°26' W 009°07'0 0.0
2017-Oct-12 02:00N 38°26' W 009°07'3 5.8
2017-Oct-12 01:30N 38°25' W 009°10'3 6.8
2017-Oct-12 01:00N 38°26' W 009°14'4 8.6
2017-Oct-12 00:30N 38°30' W 009°17'4 8.5
2017-Oct-12 00:00N 38°33' W 009°20'4 8.3
2017-Oct-11 23:30N 38°36' W 009°23'3 5.6
2017-Oct-11 23:00N 38°39' W 009°25'0 0.4
2017-Oct-11 22:30N 38°39' W 009°25'0 0.3
2017-Oct-11 22:00N 38°39' W 009°25'0 0.2
2017-Oct-11 21:30N 38°39' W 009°25'0 0.1
2017-Oct-11 21:00N 38°39' W 009°24'0 0.1
2017-Oct-11 20:30N 38°39' W 009°24'3 6.2
2017-Oct-11 20:00N 38°37' W 009°21'4 8.1
2017-Oct-11 19:30N 38°34' W 009°18'4 8.0
2017-Oct-11 19:00N 38°30' W 009°16'4 8.1
2017-Oct-11 18:30N 38°26' W 009°14'4 6.7
2017-Oct-11 17:51N 38°25' W 009°09'9 0.5
2017-Oct-11 00:00N 38°32' W 009°15'4 8.5
2017-Oct-10 23:31N 38°34' W 009°20'1 1.4
2017-Oct-10 23:00N 38°34' W 009°19'4 7.4
2017-Oct-10 22:30N 38°31' W 009°17'4 8.2
2017-Oct-10 22:00N 38°27' W 009°15'4 7.5
2017-Oct-10 21:30N 38°24' W 009°12'4 9.0
2017-Oct-10 21:01N 38°26' W 009°06'0 0.0
2017-Oct-10 15:07N 38°26' W 009°07'0 0.2
2017-Oct-10 15:01N 38°26' W 009°07'0 0.1
2017-Oct-10 14:01N 38°26' W 009°07'0 0.0
2017-Oct-10 12:04N 38°26' W 009°07'0 0.0
2017-Oct-10 12:00N 38°26' W 009°07'0 0.0
2017-Oct-10 11:30N 38°26' W 009°07'0 0.0
2017-Oct-10 11:00N 38°26' W 009°07'0 0.1
2017-Oct-10 10:30N 38°26' W 009°07'2 4.6
2017-Oct-10 10:00N 38°25' W 009°09'4 7.6
2017-Oct-10 09:30N 38°25' W 009°14'4 8.4
2017-Oct-10 09:00N 38°28' W 009°18'4 8.4
2017-Oct-10 08:30N 38°31' W 009°22'4 8.0
2017-Oct-10 08:00N 38°33' W 009°26'4 8.1
2017-Oct-10 07:30N 38°37' W 009°28'4 8.3
2017-Oct-10 07:00N 38°41' W 009°29'4 8.4
2017-Oct-10 06:30N 38°45' W 009°30'4 8.1
2017-Oct-10 06:00N 38°49' W 009°30'1 2.2
2017-Oct-10 05:30N 38°50' W 009°29'0 0.1
2017-Oct-10 05:00N 38°50' W 009°29'0 0.1
2017-Oct-10 04:30N 38°50' W 009°29'0 0.2
2017-Oct-10 04:00N 38°50' W 009°29'0 0.2
2017-Oct-10 03:30N 38°50' W 009°29'0 0.1
2017-Oct-10 03:00N 38°50' W 009°29'1 2.6
2017-Oct-10 02:30N 38°49' W 009°30'4 7.5
2017-Oct-10 02:00N 38°45' W 009°30'4 7.4
2017-Oct-10 01:30N 38°41' W 009°28'3 5.7
2017-Oct-10 01:00N 38°40' W 009°25'1 2.5
2017-Oct-10 00:30N 38°39' W 009°24'4 8.6
2017-Oct-10 00:00N 38°35' W 009°23'1 1.3
2017-Oct-09 23:30N 38°34' W 009°22'0 0.3
2017-Oct-09 23:00N 38°34' W 009°22'0 0.3
2017-Oct-09 22:30N 38°34' W 009°22'0 0.4
2017-Oct-09 22:00N 38°35' W 009°22'0 0.2
2017-Oct-09 21:30N 38°35' W 009°22'0 0.4
2017-Oct-09 21:00N 38°35' W 009°21'0 0.1
2017-Oct-09 20:30N 38°35' W 009°21'1 1.4
2017-Oct-09 20:00N 38°34' W 009°21'4 7.1
2017-Oct-09 19:30N 38°32' W 009°17'4 8.0
2017-Oct-09 19:00N 38°29' W 009°15'4 8.3
2017-Oct-09 18:30N 38°25' W 009°13'4 8.5
2017-Oct-09 18:00N 38°26' W 009°08'1 0.1
2017-Oct-09 09:06N 38°26' W 009°07'0 0.0
2017-Oct-09 09:01N 38°26' W 009°07'0 0.1
2017-Oct-09 08:30N 38°26' W 009°07'0 0.0
2017-Oct-09 08:01N 38°26' W 009°07'0 0.7
2017-Oct-09 07:30N 38°26' W 009°07'4 8.1
2017-Oct-09 07:01N 38°24' W 009°11'3 6.2
2017-Oct-09 06:31N 38°27' W 009°14'2 4.8
2017-Oct-09 06:01N 38°29' W 009°14'2 4.8
2017-Oct-09 05:31N 38°32' W 009°13'1 1.1
2017-Oct-09 05:00N 38°32' W 009°13'3 5.5
2017-Oct-09 04:31N 38°33' W 009°16'2 3.3
2017-Oct-09 04:01N 38°34' W 009°17'1 2.0
2017-Oct-09 03:31N 38°35' W 009°18'0 0.2
2017-Oct-09 03:01N 38°35' W 009°18'0 0.2
2017-Oct-09 02:30N 38°35' W 009°18'0 0.3
2017-Oct-09 02:01N 38°35' W 009°18'0 0.2
2017-Oct-09 01:31N 38°35' W 009°18'0 0.3
2017-Oct-09 01:01N 38°35' W 009°19'0 0.2
2017-Oct-09 00:31N 38°34' W 009°19'0 0.1
2017-Oct-09 00:01N 38°34' W 009°19'0 0.2
2017-Oct-08 23:31N 38°34' W 009°18'1 2.3
2017-Oct-08 23:00N 38°34' W 009°17'4 8.6
2017-Oct-08 22:30N 38°30' W 009°15'4 8.6
2017-Oct-08 22:01N 38°26' W 009°14'3 6.9
2017-Oct-08 21:30N 38°25' W 009°10'3 5.1
2017-Oct-08 21:00N 38°26' W 009°07'  
Track history (hours):
 
Tides and Currents Weather Stations Pressure Air Temp Water Temp Dewpoint Dewpoint Depression Visibility Wind Speed Wind Dir Waves Ship Positions

Pombinho

Last reported at 2017-Oct-18 11:55 UTC. Time now 2017-Oct-18 20:25 UTC.
Position N 38°26' W 009°07'.

Length 23 m.

Type: Fishing. MMSI: 263500177.

Date/timePositionNaut miles runAvg speedWind from/ knotsBaromVisibWave heightAir tempDewpointWater temp
2017-Oct-18 11:55N 38°26' W 009°07'0 0.0
2017-Oct-18 10:58N 38°26' W 009°07'5 6.3
2017-Oct-18 10:14N 38°24' W 009°12'2 7.6
2017-Oct-18 09:59N 38°25' W 009°14'5 8.8
2017-Oct-18 09:28N 38°30' W 009°14'4 8.3
2017-Oct-18 09:00N 38°34' W 009°15'0 0.1
2017-Oct-18 08:30N 38°33' W 009°15'0 0.4
2017-Oct-18 07:59N 38°33' W 009°15'0 0.4
2017-Oct-18 07:29N 38°33' W 009°15'0 0.4
2017-Oct-18 07:00N 38°33' W 009°15'0 0.3
2017-Oct-18 06:30N 38°33' W 009°15'0 0.3
2017-Oct-18 06:00N 38°33' W 009°15'0 0.3
2017-Oct-18 05:30N 38°33' W 009°14'1 1.2
2017-Oct-18 05:00N 38°32' W 009°14'2 4.7
2017-Oct-18 04:30N 38°34' W 009°15'2 3.5
2017-Oct-18 03:59N 38°35' W 009°17'0 0.0
2017-Oct-18 02:05N 38°35' W 009°17'0 0.1
2017-Oct-18 02:00N 38°35' W 009°17'0 0.0
2017-Oct-18 01:30N 38°35' W 009°17'0 0.0
2017-Oct-18 01:00N 38°35' W 009°17'0 0.0
2017-Oct-18 00:30N 38°35' W 009°17'0 0.0
2017-Oct-18 00:00N 38°35' W 009°17'0 0.0
2017-Oct-17 23:28N 38°35' W 009°17'0 0.7
2017-Oct-17 22:59N 38°35' W 009°17'3 5.4
2017-Oct-17 22:29N 38°33' W 009°15'1 1.8
2017-Oct-17 22:00N 38°32' W 009°14'0 0.7
2017-Oct-17 21:30N 38°32' W 009°14'0 0.8
2017-Oct-17 20:59N 38°32' W 009°14'0 0.4
2017-Oct-17 20:30N 38°32' W 009°14'3 5.2
2017-Oct-17 20:00N 38°29' W 009°14'1 1.2
2017-Oct-17 19:30N 38°30' W 009°13'0 0.7
2017-Oct-17 18:59N 38°29' W 009°14'0 0.4
2017-Oct-17 18:30N 38°29' W 009°14'0 0.3
2017-Oct-17 18:00N 38°29' W 009°14'2 4.8
2017-Oct-17 17:30N 38°27' W 009°14'3 6.1
2017-Oct-17 17:00N 38°25' W 009°11'3 6.7
2017-Oct-17 16:30N 38°26' W 009°07'0 0.0
2017-Oct-17 10:10N 38°26' W 009°07'0 1.0
2017-Oct-17 10:00N 38°26' W 009°07'0 0.0
2017-Oct-17 09:24N 38°26' W 009°07'0 0.0
2017-Oct-17 09:00N 38°26' W 009°07'0 0.0
2017-Oct-17 08:30N 38°26' W 009°07'0 0.0
2017-Oct-17 08:01N 38°26' W 009°07'0 0.0
2017-Oct-17 07:30N 38°26' W 009°07'0 0.0
2017-Oct-17 07:00N 38°26' W 009°07'0 0.0
2017-Oct-17 06:30N 38°26' W 009°07'3 5.5
2017-Oct-17 06:00N 38°25' W 009°10'4 7.2
2017-Oct-17 05:30N 38°25' W 009°14'4 8.5
2017-Oct-17 05:00N 38°29' W 009°14'4 7.9
2017-Oct-17 04:29N 38°33' W 009°17'4 8.5
2017-Oct-17 04:00N 38°36' W 009°20'4 8.2
2017-Oct-17 03:30N 38°38' W 009°24'3 5.2
2017-Oct-17 03:00N 38°40' W 009°27'0 0.2
2017-Oct-17 02:30N 38°40' W 009°27'0 0.1
2017-Oct-17 02:00N 38°40' W 009°27'0 0.1
2017-Oct-17 01:31N 38°40' W 009°27'0 0.1
2017-Oct-17 01:01N 38°40' W 009°27'0 0.2
2017-Oct-17 00:31N 38°40' W 009°27'0 0.2
2017-Oct-17 00:01N 38°40' W 009°26'3 5.6
2017-Oct-16 23:30N 38°38' W 009°24'4 8.2
2017-Oct-16 23:00N 38°35' W 009°21'3 6.3
2017-Oct-16 22:30N 38°35' W 009°17'3 6.6
2017-Oct-16 22:00N 38°32' W 009°14'3 5.3
2017-Oct-16 21:30N 38°29' W 009°14'4 7.0
2017-Oct-16 21:00N 38°26' W 009°14'5 6.8
2017-Oct-16 20:18N 38°25' W 009°08'1 0.3
2017-Oct-16 14:42N 38°26' W 009°07'0 0.3
2017-Oct-16 14:00N 38°26' W 009°07'0 0.0
2017-Oct-16 13:30N 38°26' W 009°07'0 0.0
2017-Oct-16 13:00N 38°26' W 009°07'0 0.0
2017-Oct-16 12:30N 38°26' W 009°07'0 0.0
2017-Oct-16 12:00N 38°26' W 009°07'0 0.0
2017-Oct-16 11:30N 38°26' W 009°07'0 0.0
2017-Oct-16 11:00N 38°26' W 009°07'0 0.4
2017-Oct-16 10:30N 38°26' W 009°06'4 8.9
2017-Oct-16 10:00N 38°24' W 009°02'4 9.0
2017-Oct-16 09:30N 38°21' W 008°57'5 8.9
2017-Oct-16 08:59N 38°19' W 008°52'4 6.4
2017-Oct-16 08:25N 38°17' W 008°49'0 0.2
2017-Oct-16 07:57N 38°16' W 008°49'3 6.0
2017-Oct-16 07:30N 38°14' W 008°49'0 0.4
2017-Oct-16 07:00N 38°14' W 008°49'0 0.3
2017-Oct-16 06:30N 38°13' W 008°49'0 0.3
2017-Oct-16 06:00N 38°13' W 008°48'0 0.3
2017-Oct-16 05:30N 38°13' W 008°48'3 5.2
2017-Oct-16 05:00N 38°16' W 008°49'3 5.0
2017-Oct-16 04:30N 38°16' W 008°52'4 7.6
2017-Oct-16 04:00N 38°18' W 008°56'4 7.5
2017-Oct-16 03:30N 38°19' W 009°01'4 7.8
2017-Oct-16 03:00N 38°21' W 009°05'4 7.7
2017-Oct-16 02:29N 38°23' W 009°10'4 7.6
2017-Oct-16 02:00N 38°25' W 009°14'4 7.2
2017-Oct-16 01:30N 38°28' W 009°14'2 4.6
2017-Oct-16 01:00N 38°30' W 009°14'2 4.1
2017-Oct-16 00:30N 38°32' W 009°15'4 7.8
2017-Oct-16 00:00N 38°36' W 009°17'2 4.3
2017-Oct-15 23:30N 38°34' W 009°18'4 7.4
2017-Oct-15 23:00N 38°32' W 009°15'4 7.9
2017-Oct-15 22:30N 38°28' W 009°14'4 7.9
2017-Oct-15 22:00N 38°24' W 009°13'4 8.1
2017-Oct-15 21:30N 38°25' W 009°08'2 3.8
2017-Oct-15 21:00N 38°26' W 009°07'  
2017-Oct-13 11:33N 38°26' W 009°07'0 0.0
2017-Oct-13 11:30N 38°26' W 009°07'0 0.0
2017-Oct-13 11:00N 38°26' W 009°07'0 0.0
2017-Oct-13 10:27N 38°26' W 009°07'0 0.0
2017-Oct-13 08:07N 38°26' W 009°07'0 0.0
2017-Oct-13 07:59N 38°26' W 009°07'0 0.0
2017-Oct-13 07:29N 38°26' W 009°07'0 0.0
2017-Oct-13 07:00N 38°26' W 009°07'0 0.0
2017-Oct-13 06:30N 38°26' W 009°07'4 5.4
2017-Oct-13 05:47N 38°25' W 009°11'5 1.3
2017-Oct-13 01:48N 38°29' W 009°14'0 0.2
2017-Oct-13 01:28N 38°29' W 009°14'0 0.1
2017-Oct-13 00:21N 38°29' W 009°14'8 3.6
2017-Oct-12 22:01N 38°36' W 009°21'0 0.8
2017-Oct-12 22:00N 38°36' W 009°21'0 0.4
2017-Oct-12 21:30N 38°36' W 009°21'0 0.4
2017-Oct-12 20:57N 38°36' W 009°21'0 0.4
2017-Oct-12 20:30N 38°36' W 009°22'0 0.2
2017-Oct-12 19:59N 38°36' W 009°22'0 0.6
2017-Oct-12 19:30N 38°36' W 009°22'4 6.8
2017-Oct-12 18:59N 38°34' W 009°19'4 8.1
2017-Oct-12 18:30N 38°30' W 009°17'4 8.4
2017-Oct-12 18:00N 38°26' W 009°14'5 7.1
2017-Oct-12 17:21N 38°25' W 009°09'2 0.2
2017-Oct-12 10:25N 38°26' W 009°07'0 0.3
2017-Oct-12 09:59N 38°26' W 009°07'0 0.0
2017-Oct-12 08:43N 38°26' W 009°07'0 0.0
2017-Oct-12 08:26N 38°26' W 009°07'1 1.6
2017-Oct-12 07:56N 38°26' W 009°07'3 7.9
2017-Oct-12 07:30N 38°25' W 009°12'4 6.6
2017-Oct-12 06:58N 38°28' W 009°14'2 3.2
2017-Oct-12 06:30N 38°29' W 009°14'0 0.1
2017-Oct-12 06:00N 38°29' W 009°14'0 0.2
2017-Oct-12 05:30N 38°29' W 009°14'0 0.2
2017-Oct-12 04:59N 38°29' W 009°14'0 0.2
2017-Oct-12 04:30N 38°29' W 009°14'4 7.6
2017-Oct-12 03:58N 38°25' W 009°14'4 7.2
2017-Oct-12 03:28N 38°25' W 009°09'2 4.3
2017-Oct-12 03:00N 38°26' W 009°07'0 0.0
2017-Oct-12 02:30N 38°26' W 009°07'0 0.0
2017-Oct-12 02:00N 38°26' W 009°07'3 5.8
2017-Oct-12 01:30N 38°25' W 009°10'3 6.8
2017-Oct-12 01:00N 38°26' W 009°14'4 8.6
2017-Oct-12 00:30N 38°30' W 009°17'4 8.5
2017-Oct-12 00:00N 38°33' W 009°20'4 8.3
2017-Oct-11 23:30N 38°36' W 009°23'3 5.6
2017-Oct-11 23:00N 38°39' W 009°25'0 0.4
2017-Oct-11 22:30N 38°39' W 009°25'0 0.3
2017-Oct-11 22:00N 38°39' W 009°25'0 0.2
2017-Oct-11 21:30N 38°39' W 009°25'0 0.1
2017-Oct-11 21:00N 38°39' W 009°24'0 0.1
2017-Oct-11 20:30N 38°39' W 009°24'3 6.2
2017-Oct-11 20:00N 38°37' W 009°21'4 8.1
2017-Oct-11 19:30N 38°34' W 009°18'4 8.0
2017-Oct-11 19:00N 38°30' W 009°16'4 8.1
2017-Oct-11 18:30N 38°26' W 009°14'4 6.7
2017-Oct-11 17:51N 38°25' W 009°09'9 0.5
2017-Oct-11 00:00N 38°32' W 009°15'4 8.5
2017-Oct-10 23:31N 38°34' W 009°20'1 1.4
2017-Oct-10 23:00N 38°34' W 009°19'4 7.4
2017-Oct-10 22:30N 38°31' W 009°17'4 8.2
2017-Oct-10 22:00N 38°27' W 009°15'4 7.5
2017-Oct-10 21:30N 38°24' W 009°12'4 9.0
2017-Oct-10 21:01N 38°26' W 009°06'0 0.0
2017-Oct-10 15:07N 38°26' W 009°07'0 0.2
2017-Oct-10 15:01N 38°26' W 009°07'0 0.1
2017-Oct-10 14:01N 38°26' W 009°07'0 0.0
2017-Oct-10 12:04N 38°26' W 009°07'0 0.0
2017-Oct-10 12:00N 38°26' W 009°07'0 0.0
2017-Oct-10 11:30N 38°26' W 009°07'0 0.0
2017-Oct-10 11:00N 38°26' W 009°07'0 0.1
2017-Oct-10 10:30N 38°26' W 009°07'2 4.6
2017-Oct-10 10:00N 38°25' W 009°09'4 7.6
2017-Oct-10 09:30N 38°25' W 009°14'4 8.4
2017-Oct-10 09:00N 38°28' W 009°18'4 8.4
2017-Oct-10 08:30N 38°31' W 009°22'4 8.0
2017-Oct-10 08:00N 38°33' W 009°26'4 8.1
2017-Oct-10 07:30N 38°37' W 009°28'4 8.3
2017-Oct-10 07:00N 38°41' W 009°29'4 8.4
2017-Oct-10 06:30N 38°45' W 009°30'4 8.1
2017-Oct-10 06:00N 38°49' W 009°30'1 2.2
2017-Oct-10 05:30N 38°50' W 009°29'0 0.1
2017-Oct-10 05:00N 38°50' W 009°29'0 0.1
2017-Oct-10 04:30N 38°50' W 009°29'0 0.2
2017-Oct-10 04:00N 38°50' W 009°29'0 0.2
2017-Oct-10 03:30N 38°50' W 009°29'0 0.1
2017-Oct-10 03:00N 38°50' W 009°29'1 2.6
2017-Oct-10 02:30N 38°49' W 009°30'4 7.5
2017-Oct-10 02:00N 38°45' W 009°30'4 7.4
2017-Oct-10 01:30N 38°41' W 009°28'3 5.7
2017-Oct-10 01:00N 38°40' W 009°25'1 2.5
2017-Oct-10 00:30N 38°39' W 009°24'4 8.6
2017-Oct-10 00:00N 38°35' W 009°23'1 1.3
2017-Oct-09 23:30N 38°34' W 009°22'0 0.3
2017-Oct-09 23:00N 38°34' W 009°22'0 0.3
2017-Oct-09 22:30N 38°34' W 009°22'0 0.4
2017-Oct-09 22:00N 38°35' W 009°22'0 0.2
2017-Oct-09 21:30N 38°35' W 009°22'0 0.4
2017-Oct-09 21:00N 38°35' W 009°21'0 0.1
2017-Oct-09 20:30N 38°35' W 009°21'1 1.4
2017-Oct-09 20:00N 38°34' W 009°21'4 7.1
2017-Oct-09 19:30N 38°32' W 009°17'4 8.0
2017-Oct-09 19:00N 38°29' W 009°15'4 8.3
2017-Oct-09 18:30N 38°25' W 009°13'4 8.5
2017-Oct-09 18:00N 38°26' W 009°08'1 0.1
2017-Oct-09 09:06N 38°26' W 009°07'0 0.0
2017-Oct-09 09:01N 38°26' W 009°07'0 0.1
2017-Oct-09 08:30N 38°26' W 009°07'0 0.0
2017-Oct-09 08:01N 38°26' W 009°07'0 0.7
2017-Oct-09 07:30N 38°26' W 009°07'4 8.1
2017-Oct-09 07:01N 38°24' W 009°11'3 6.2
2017-Oct-09 06:31N 38°27' W 009°14'2 4.8
2017-Oct-09 06:01N 38°29' W 009°14'2 4.8
2017-Oct-09 05:31N 38°32' W 009°13'1 1.1
2017-Oct-09 05:00N 38°32' W 009°13'3 5.5
2017-Oct-09 04:31N 38°33' W 009°16'2 3.3
2017-Oct-09 04:01N 38°34' W 009°17'1 2.0
2017-Oct-09 03:31N 38°35' W 009°18'0 0.2
2017-Oct-09 03:01N 38°35' W 009°18'0 0.2
2017-Oct-09 02:30N 38°35' W 009°18'0 0.3
2017-Oct-09 02:01N 38°35' W 009°18'0 0.2
2017-Oct-09 01:31N 38°35' W 009°18'0 0.3
2017-Oct-09 01:01N 38°35' W 009°19'0 0.2
2017-Oct-09 00:31N 38°34' W 009°19'0 0.1
2017-Oct-09 00:01N 38°34' W 009°19'0 0.2
2017-Oct-08 23:31N 38°34' W 009°18'1 2.3
2017-Oct-08 23:00N 38°34' W 009°17'4 8.6
2017-Oct-08 22:30N 38°30' W 009°15'4 8.6
2017-Oct-08 22:01N 38°26' W 009°14'3 6.9
2017-Oct-08 21:30N 38°25' W 009°10'3 5.1
2017-Oct-08 21:00N 38°26' W 009°07'  

Dump ship's entire track history